createdAt,value
2018-12-08T00:00:02.360Z,9.4
2018-12-08T00:05:07.623Z,9.1
2018-12-08T00:10:04.917Z,9.1
2018-12-08T00:15:20.384Z,9
2018-12-08T00:20:30.599Z,8.8
2018-12-08T00:25:35.807Z,8.7
2018-12-08T00:30:03.183Z,8.7
2018-12-08T00:40:05.695Z,7.9
2018-12-08T00:45:32.829Z,7.8
2018-12-08T00:50:08.197Z,7.8
2018-12-08T00:55:02.451Z,7.8
2018-12-08T01:00:17.952Z,7.7
2018-12-08T01:05:03.097Z,7.7
2018-12-08T01:10:05.475Z,7.8
2018-12-08T01:15:05.768Z,7.8
2018-12-08T01:20:03.203Z,7.9
2018-12-08T01:25:05.130Z,7.9
2018-12-08T01:30:20.236Z,7.9
2018-12-08T01:35:07.896Z,7.9
2018-12-08T01:40:27.993Z,7.9
2018-12-08T01:50:35.429Z,7.9
2018-12-08T01:55:28.069Z,7.9
2018-12-08T02:00:17.577Z,7.9
2018-12-08T02:05:12.856Z,7.9
2018-12-08T02:10:05.190Z,8
2018-12-08T02:15:05.541Z,7.9
2018-12-08T02:25:15.784Z,7.8
2018-12-08T02:30:03.156Z,7.8
2018-12-08T02:35:02.591Z,7.9
2018-12-08T02:40:10.076Z,7.9
2018-12-08T02:45:05.566Z,7.8
2018-12-08T02:50:15.526Z,7.7
2018-12-08T02:55:23.587Z,7.7
2018-12-08T03:00:30.713Z,7.7
2018-12-08T03:05:05.566Z,7.6
2018-12-08T03:10:36.280Z,7.6
2018-12-08T03:15:05.174Z,7.5
2018-12-08T03:20:12.709Z,7.4
2018-12-08T03:25:10.504Z,7.4
2018-12-08T03:35:02.968Z,7.3
2018-12-08T03:40:02.718Z,7.4
2018-12-08T03:45:03.142Z,7.4
2018-12-08T03:55:07.741Z,7.3
2018-12-08T04:00:05.575Z,7.2
2018-12-08T04:05:05.090Z,7.2
2018-12-08T04:10:05.491Z,7.2
2018-12-08T04:15:05.778Z,7.2
2018-12-08T04:20:03.171Z,7.1
2018-12-08T04:25:25.270Z,7
2018-12-08T04:30:17.893Z,6.9
2018-12-08T04:35:03.104Z,6.9
2018-12-08T04:45:05.799Z,6.7
2018-12-08T04:50:10.786Z,6.6
2018-12-08T04:55:04.959Z,6.6
2018-12-08T05:00:18.446Z,6.5
2018-12-08T05:05:05.043Z,6.6
2018-12-08T05:10:05.395Z,6.6
2018-12-08T05:15:03.184Z,6.6
2018-12-08T05:20:07.643Z,6.5
2018-12-08T05:25:07.934Z,6.5
2018-12-08T05:30:05.775Z,6.4
2018-12-08T05:35:02.455Z,6.4
2018-12-08T05:40:26.000Z,6.4
2018-12-08T05:45:16.005Z,6.4
2018-12-08T05:50:15.954Z,6.4
2018-12-08T05:55:20.400Z,6.4
2018-12-08T06:00:22.979Z,6.5
2018-12-08T06:05:10.568Z,6.5
2018-12-08T06:10:13.556Z,6.6
2018-12-08T06:15:25.390Z,6.5
2018-12-08T06:20:07.829Z,6.4
2018-12-08T06:25:08.118Z,6.3
2018-12-08T06:30:02.824Z,6.3
2018-12-08T06:35:10.773Z,6.1
2018-12-08T06:40:05.073Z,6.1
2018-12-08T06:45:15.519Z,6
2018-12-08T06:50:07.925Z,6
2018-12-08T06:55:08.230Z,6
2018-12-08T07:00:15.254Z,5.9
2018-12-08T07:05:02.886Z,5.9
2018-12-08T07:10:20.484Z,5.9
2018-12-08T07:15:08.238Z,5.9
2018-12-08T07:20:10.280Z,5.9
2018-12-08T07:30:03.204Z,5.9
2018-12-08T07:35:27.917Z,5.9
2018-12-08T07:40:05.266Z,6
2018-12-08T07:45:10.655Z,6
2018-12-08T07:50:18.146Z,6
2018-12-08T07:55:03.244Z,6
2018-12-08T08:00:27.869Z,6.2
2018-12-08T08:10:10.454Z,6.3
2018-12-08T08:15:13.297Z,6.3
2018-12-08T08:20:30.538Z,6.2
2018-12-08T08:25:20.542Z,6.2
2018-12-08T08:30:07.932Z,6.2
2018-12-08T08:35:15.775Z,6.2
2018-12-08T08:40:22.961Z,6.3
2018-12-08T08:45:10.665Z,6.3
2018-12-08T08:50:18.143Z,6.3
2018-12-08T08:55:05.813Z,6.4
2018-12-08T09:00:05.664Z,6.5
2018-12-08T09:10:26.171Z,6.7
2018-12-08T09:15:07.537Z,6.7
2018-12-08T09:20:02.950Z,6.7
2018-12-08T09:25:08.310Z,6.9
2018-12-08T09:30:07.672Z,6.9
2018-12-08T09:35:03.037Z,6.9
2018-12-08T09:40:05.410Z,7.1
2018-12-08T09:45:03.216Z,7.1
2018-12-08T09:50:27.859Z,7.3
2018-12-08T09:55:05.704Z,7.4
2018-12-08T10:00:05.516Z,7.4
2018-12-08T10:05:15.948Z,7.4
2018-12-08T10:10:17.938Z,7.5
2018-12-08T10:15:20.807Z,7.5
2018-12-08T10:20:10.783Z,7.6
2018-12-08T10:25:10.171Z,7.7
2018-12-08T10:30:07.531Z,7.7
2018-12-08T10:40:10.052Z,7.8
2018-12-08T10:45:17.912Z,7.9
2018-12-08T10:50:02.399Z,7.9
2018-12-08T11:05:10.700Z,7.9
2018-12-08T11:10:02.616Z,7.9
2018-12-08T11:20:03.212Z,8.1
2018-12-08T11:25:10.272Z,8.2
2018-12-08T11:35:15.480Z,8.5
2018-12-08T11:40:35.632Z,8.5
2018-12-08T11:45:02.938Z,8.5
2018-12-08T11:50:05.771Z,8.6
2018-12-08T11:55:05.062Z,8.6
2018-12-08T12:00:04.948Z,8.6
2018-12-08T12:05:17.920Z,8.7
2018-12-08T12:10:20.423Z,8.7
2018-12-08T12:15:08.103Z,8.8
2018-12-08T12:20:10.199Z,8.7
2018-12-08T12:25:35.701Z,8.7
2018-12-08T12:30:18.217Z,8.6
2018-12-08T12:35:04.913Z,8.6
2018-12-08T12:40:17.889Z,8.7
2018-12-08T12:45:10.642Z,8.6
2018-12-08T12:55:10.822Z,8.6
2018-12-08T13:00:10.756Z,8.7
2018-12-08T13:05:10.179Z,8.6
2018-12-08T13:10:02.993Z,8.6
2018-12-08T13:15:05.893Z,8.7
2018-12-08T13:20:18.546Z,8.7
2018-12-08T13:25:28.035Z,8.7
2018-12-08T13:30:18.521Z,8.7
2018-12-08T13:35:25.491Z,8.7
2018-12-08T13:40:18.472Z,8.6
2018-12-08T13:45:22.860Z,8.4
2018-12-08T13:50:10.730Z,8.1
2018-12-08T13:55:10.082Z,8
2018-12-08T14:00:25.194Z,7.9
2018-12-08T14:05:05.062Z,7.9
2018-12-08T14:10:12.959Z,7.9
2018-12-08T14:20:17.563Z,7.8
2018-12-08T14:25:02.744Z,7.8
2018-12-08T14:30:13.235Z,7.8
2018-12-08T14:35:37.864Z,7.8
2018-12-08T14:40:05.254Z,7.8
2018-12-08T14:45:10.659Z,7.7
2018-12-08T14:50:33.460Z,7.7
2018-12-08T15:00:13.090Z,7.7
2018-12-08T15:05:13.430Z,7.7
2018-12-08T15:10:36.080Z,7.7
2018-12-08T15:15:10.109Z,7.7
2018-12-08T15:20:15.168Z,7.8
2018-12-08T15:25:33.261Z,7.8
2018-12-08T15:30:15.191Z,7.8
2018-12-08T15:35:05.431Z,7.8
2018-12-08T15:40:05.859Z,7.9
2018-12-08T15:45:07.750Z,7.9
2018-12-08T16:00:02.579Z,8
2018-12-08T16:05:23.147Z,7.9
2018-12-08T16:10:33.348Z,8
2018-12-08T16:15:07.722Z,8
2018-12-08T16:20:03.227Z,8
2018-12-08T16:25:10.084Z,8
2018-12-08T16:30:22.686Z,8
2018-12-08T16:35:15.515Z,8.1
2018-12-08T16:40:05.881Z,8.1
2018-12-08T16:45:07.871Z,8.1
2018-12-08T16:55:32.785Z,8.2
2018-12-08T17:00:10.734Z,8.2
2018-12-08T17:05:02.562Z,8.2
2018-12-08T17:10:02.391Z,8.3
2018-12-08T17:15:17.982Z,8.3
2018-12-08T17:20:07.480Z,8.3
2018-12-08T17:25:20.364Z,8.3
2018-12-08T17:30:35.551Z,8.4
2018-12-08T17:35:05.483Z,8.4
2018-12-08T17:40:03.301Z,8.4
2018-12-08T17:50:17.972Z,8.5
2018-12-08T17:55:13.265Z,8.5
2018-12-08T18:00:07.586Z,8.5
2018-12-08T18:05:23.132Z,8.4
2018-12-08T18:10:23.267Z,8.4
2018-12-08T18:20:02.597Z,8.5
2018-12-08T18:25:05.013Z,8.4
2018-12-08T18:35:28.077Z,8.2
2018-12-08T18:40:10.459Z,8.2
2018-12-08T18:45:10.901Z,8.2
2018-12-08T18:50:05.770Z,8.3
2018-12-08T18:55:15.209Z,8.2
2018-12-08T19:00:32.861Z,8.2
2018-12-08T19:05:05.814Z,8.2
2018-12-08T19:15:10.356Z,8.2
2018-12-08T19:20:20.491Z,8.2
2018-12-08T19:25:13.342Z,8.1
2018-12-08T19:30:02.685Z,8.1
2018-12-08T19:35:15.590Z,8
2018-12-08T19:40:12.564Z,7.9
2018-12-08T19:45:15.389Z,7.9
2018-12-08T19:50:17.919Z,7.8
2018-12-08T19:55:13.168Z,7.8
2018-12-08T20:00:15.167Z,7.8
2018-12-08T20:05:12.980Z,7.8
2018-12-08T20:10:12.920Z,7.7
2018-12-08T20:15:10.757Z,7.7
2018-12-08T20:20:03.212Z,7.7
2018-12-08T20:25:02.468Z,7.7
2018-12-08T20:30:10.391Z,7.7
2018-12-08T20:35:08.273Z,7.6
2018-12-08T20:40:05.594Z,7.6
2018-12-08T20:45:05.885Z,7.6
2018-12-08T20:50:03.228Z,7.5
2018-12-08T20:55:15.267Z,7.5
2018-12-08T21:00:15.232Z,7.5
2018-12-08T21:05:02.873Z,7.5
2018-12-08T21:15:10.533Z,7.4
2018-12-08T21:20:05.837Z,7.4
2018-12-08T21:25:05.160Z,7.3
2018-12-08T21:30:05.026Z,7.3
2018-12-08T21:35:07.881Z,7.2
2018-12-08T21:40:02.768Z,7.3
2018-12-08T21:45:18.276Z,7.2
2018-12-08T21:50:37.948Z,7.1
2018-12-08T21:55:03.251Z,7
2018-12-08T22:00:27.870Z,7.1
2018-12-08T22:05:05.659Z,7.1
2018-12-08T22:10:02.468Z,7.1
2018-12-08T22:15:10.420Z,7.1
2018-12-08T22:20:30.663Z,7.1
2018-12-08T22:25:30.808Z,7.1
2018-12-08T22:30:20.837Z,7.2
2018-12-08T22:35:07.570Z,7.2
2018-12-08T22:40:10.932Z,7.3
2018-12-08T22:45:25.424Z,7.4
2018-12-08T22:50:15.380Z,7.4
2018-12-08T22:55:10.688Z,7.5
2018-12-08T23:00:13.128Z,7.5
2018-12-08T23:05:02.398Z,7.5
2018-12-08T23:10:03.194Z,7.6
2018-12-08T23:15:02.504Z,7.6
2018-12-08T23:20:08.030Z,7.7
2018-12-08T23:25:10.811Z,7.7
2018-12-08T23:30:08.261Z,7.7
2018-12-08T23:35:04.977Z,7.7
2018-12-08T23:40:05.349Z,7.7
2018-12-08T23:45:36.016Z,7.7
2018-12-08T23:50:10.871Z,7.7
2018-12-08T23:55:02.554Z,7.7
